Terminal Aerodrome Forecast
Issued by NWS

Home | Current Version | Previous Version | Text Only | Print | Product List | Glossary On
Versions: 1 2 3 4 5 6 7 8 9 10 11 12 13 14 15 16 17 18 19 20 21 22 23 24 25 26 27 28 29
000
FTUS43 KGRB 221124
TAFRHI
TAF
KRHI 221124Z 2212/2312 24003KT P6SM VCSH SCT070 BKN100
     FM221700 VRB03KT P6SM VCSH BKN100
     FM222300 33004KT 6SM -RA BR SCT020 BKN035
     FM230600 34006KT P6SM BKN015=

USA.gov is the U.S. government's official web portal to all federal, state and local government web resources and services.